createdAt,value
2019-01-19T00:00:27.480Z,11.70
2019-01-19T00:01:27.472Z,11.90
2019-01-19T00:02:27.473Z,13.90
2019-01-19T00:03:27.449Z,10.90
2019-01-19T00:04:27.441Z,11.70
2019-01-19T00:05:27.430Z,11.60
2019-01-19T00:06:27.452Z,12.60
2019-01-19T00:07:27.409Z,10.90
2019-01-19T00:08:27.396Z,12.60
2019-01-19T00:09:27.386Z,10.90
2019-01-19T00:10:27.377Z,14.00
2019-01-19T00:11:27.364Z,9.60
2019-01-19T00:12:27.369Z,13.10
2019-01-19T00:13:27.345Z,10.70
2019-01-19T00:14:27.335Z,11.60
2019-01-19T00:15:27.323Z,11.20
2019-01-19T00:16:27.312Z,11.70
2019-01-19T00:17:27.332Z,13.60
2019-01-19T00:18:27.290Z,9.80
2019-01-19T00:19:27.280Z,12.00
2019-01-19T00:20:27.270Z,10.50
2019-01-19T00:21:27.263Z,12.10
2019-01-19T00:22:27.253Z,11.00
2019-01-19T00:23:27.252Z,10.20
2019-01-19T00:24:27.228Z,10.30
2019-01-19T00:25:27.215Z,11.80
2019-01-19T00:26:27.208Z,12.50
2019-01-19T00:27:27.197Z,10.20
2019-01-19T00:28:27.209Z,10.40
2019-01-19T00:29:27.173Z,11.10
2019-01-19T00:30:27.163Z,10.20
2019-01-19T00:31:27.154Z,8.30
2019-01-19T00:32:27.145Z,9.00
2019-01-19T00:33:27.136Z,9.60
2019-01-19T00:34:33.847Z,10.80
2019-01-19T00:35:28.123Z,9.20
2019-01-19T00:36:27.099Z,8.60
2019-01-19T00:37:27.090Z,8.70
2019-01-19T00:38:27.081Z,9.60
2019-01-19T00:39:27.069Z,8.90
2019-01-19T00:40:27.069Z,11.10
2019-01-19T00:41:27.049Z,8.60
2019-01-19T00:42:27.038Z,9.60
2019-01-19T00:43:27.026Z,10.50
2019-01-19T00:44:27.015Z,13.80
2019-01-19T00:45:27.019Z,9.90
2019-01-19T00:46:27.031Z,7.50
2019-01-19T00:47:26.998Z,8.40
2019-01-19T00:48:26.976Z,9.50
2019-01-19T00:49:26.962Z,9.00
2019-01-19T00:50:26.954Z,9.00
2019-01-19T00:51:26.941Z,9.90
2019-01-19T00:52:26.948Z,9.60
2019-01-19T00:53:26.921Z,10.50
2019-01-19T00:54:26.913Z,11.80
2019-01-19T00:55:26.898Z,8.30
2019-01-19T00:56:26.912Z,9.80
2019-01-19T00:57:26.881Z,13.50
2019-01-19T00:58:26.866Z,9.40
2019-01-19T00:59:26.856Z,9.60
2019-01-19T01:00:26.848Z,9.40
2019-01-19T01:01:26.838Z,12.80
2019-01-19T01:02:26.844Z,9.00
2019-01-19T01:03:26.813Z,11.70
2019-01-19T01:04:26.806Z,13.10
2019-01-19T01:05:26.792Z,11.10
2019-01-19T01:06:26.784Z,11.80
2019-01-19T01:07:26.793Z,11.10
2019-01-19T01:08:26.763Z,10.80
2019-01-19T01:09:26.752Z,11.50
2019-01-19T01:10:26.740Z,11.40
2019-01-19T01:11:26.730Z,9.20
2019-01-19T01:12:26.719Z,10.40
2019-01-19T01:13:26.728Z,10.00
2019-01-19T01:14:26.697Z,9.50
2019-01-19T01:15:26.686Z,10.20
2019-01-19T01:16:26.679Z,8.90
2019-01-19T01:17:26.666Z,10.70
2019-01-19T01:18:26.670Z,10.90
2019-01-19T01:19:26.662Z,10.90
2019-01-19T01:20:26.634Z,10.00
2019-01-19T01:21:26.623Z,10.40
2019-01-19T01:22:26.614Z,10.20
2019-01-19T01:23:26.629Z,9.70
2019-01-19T01:24:26.594Z,11.00
2019-01-19T01:25:26.582Z,11.90
2019-01-19T01:26:26.571Z,8.50
2019-01-19T01:27:26.562Z,8.20
2019-01-19T01:28:26.552Z,10.60
2019-01-19T01:29:26.556Z,9.70
2019-01-19T01:30:26.528Z,9.60
2019-01-19T01:31:26.536Z,12.40
2019-01-19T01:32:26.510Z,8.90
2019-01-19T01:33:26.497Z,8.10
2019-01-19T01:34:26.501Z,9.30
2019-01-19T01:35:32.610Z,9.00
2019-01-19T01:36:27.466Z,9.70
2019-01-19T01:37:26.454Z,6.90
2019-01-19T01:38:26.462Z,9.10
2019-01-19T01:39:26.434Z,7.20
2019-01-19T01:40:26.423Z,8.80
2019-01-19T01:41:26.440Z,7.50
2019-01-19T01:42:26.418Z,8.70
2019-01-19T01:43:26.393Z,10.00
2019-01-19T01:44:26.382Z,8.80
2019-01-19T01:45:26.374Z,7.70
2019-01-19T01:46:26.363Z,8.30
2019-01-19T01:47:26.366Z,8.80
2019-01-19T01:48:26.340Z,9.30
2019-01-19T01:49:26.328Z,8.00
2019-01-19T01:50:26.326Z,7.20
2019-01-19T01:51:26.307Z,8.40
2019-01-19T01:52:26.297Z,7.70
2019-01-19T01:53:26.303Z,9.40
2019-01-19T01:54:26.276Z,9.00
2019-01-19T01:55:26.264Z,7.90
2019-01-19T01:56:26.254Z,9.80
2019-01-19T01:57:26.246Z,6.60
2019-01-19T01:58:26.248Z,7.80
2019-01-19T01:59:26.226Z,8.00
2019-01-19T02:00:26.216Z,7.00
2019-01-19T02:01:26.207Z,9.20
2019-01-19T02:02:26.190Z,6.80
2019-01-19T02:03:26.196Z,10.60
2019-01-19T02:04:26.170Z,9.80
2019-01-19T02:05:26.159Z,7.40
2019-01-19T02:06:26.149Z,6.60
2019-01-19T02:07:26.138Z,7.70
2019-01-19T02:08:26.167Z,7.20
2019-01-19T02:09:26.116Z,8.10
2019-01-19T02:10:26.104Z,7.90
2019-01-19T02:11:26.097Z,6.80
2019-01-19T02:12:26.087Z,6.60
2019-01-19T02:13:26.077Z,8.10
2019-01-19T02:14:26.081Z,7.40
2019-01-19T02:15:26.056Z,6.70
2019-01-19T02:16:26.044Z,7.40
2019-01-19T02:17:26.054Z,10.90
2019-01-19T02:18:26.024Z,6.00
2019-01-19T02:19:26.014Z,7.30
2019-01-19T02:20:26.002Z,6.50
2019-01-19T02:21:25.992Z,6.10
2019-01-19T02:22:25.979Z,7.20
2019-01-19T02:23:25.986Z,7.00
2019-01-19T02:24:25.962Z,7.70
2019-01-19T02:25:25.951Z,7.30
2019-01-19T02:26:25.937Z,5.80
2019-01-19T02:27:25.928Z,7.50
2019-01-19T02:28:25.935Z,5.80
2019-01-19T02:29:25.907Z,5.20
2019-01-19T02:30:25.898Z,6.00
2019-01-19T02:31:25.903Z,4.70
2019-01-19T02:32:25.875Z,8.30
2019-01-19T02:33:25.863Z,6.90
2019-01-19T02:34:25.855Z,6.20
2019-01-19T02:35:25.843Z,6.80
2019-01-19T02:36:25.860Z,7.40
2019-01-19T02:37:25.823Z,6.30
2019-01-19T02:38:25.810Z,6.20
2019-01-19T02:39:25.802Z,6.00
2019-01-19T02:40:25.790Z,7.40
2019-01-19T02:41:25.779Z,8.20
2019-01-19T02:42:25.785Z,5.10
2019-01-19T02:43:25.756Z,5.70
2019-01-19T02:44:25.786Z,5.50
2019-01-19T02:45:25.735Z,6.00
2019-01-19T02:46:25.727Z,6.00
2019-01-19T02:47:25.716Z,4.70
2019-01-19T02:48:25.706Z,6.30
2019-01-19T02:49:25.693Z,6.30
2019-01-19T02:50:25.708Z,6.20
2019-01-19T02:51:25.672Z,5.60
2019-01-19T02:52:25.666Z,4.80
2019-01-19T02:53:25.652Z,5.20
2019-01-19T02:54:25.641Z,4.10
2019-01-19T02:55:25.634Z,4.10
2019-01-19T02:56:25.633Z,5.10
2019-01-19T02:57:25.612Z,5.10
2019-01-19T02:58:25.615Z,5.80
2019-01-19T02:59:25.606Z,5.30
2019-01-19T03:00:25.596Z,6.00
2019-01-19T03:01:25.567Z,6.50
2019-01-19T03:02:25.557Z,5.80
2019-01-19T03:03:25.548Z,4.80
2019-01-19T03:04:25.538Z,4.90
2019-01-19T03:05:25.539Z,5.90
2019-01-19T03:06:25.517Z,4.00
2019-01-19T03:07:25.508Z,6.40
2019-01-19T03:08:25.493Z,4.30
2019-01-19T03:09:25.487Z,5.20
2019-01-19T03:10:25.494Z,5.00
2019-01-19T03:11:25.464Z,3.80
2019-01-19T03:12:25.451Z,4.60
2019-01-19T03:13:25.441Z,3.80
2019-01-19T03:14:25.433Z,4.50
2019-01-19T03:15:25.421Z,3.90
2019-01-19T03:16:25.426Z,3.70
2019-01-19T03:17:25.403Z,3.20
2019-01-19T03:18:25.390Z,2.90
2019-01-19T03:19:25.381Z,2.80
2019-01-19T03:20:25.370Z,3.50
2019-01-19T03:21:25.372Z,4.20
2019-01-19T03:22:25.362Z,2.80
2019-01-19T03:23:25.338Z,4.00
2019-01-19T03:24:25.326Z,3.20
2019-01-19T03:25:25.317Z,3.30
2019-01-19T03:26:25.310Z,2.60
2019-01-19T03:27:25.324Z,3.00
2019-01-19T03:28:25.283Z,2.60
2019-01-19T03:29:25.291Z,5.30
2019-01-19T03:30:25.275Z,4.00
2019-01-19T03:31:25.255Z,4.20
2019-01-19T03:32:25.243Z,2.60
2019-01-19T03:33:25.274Z,2.40
2019-01-19T03:34:25.218Z,3.30
2019-01-19T03:35:25.217Z,3.00
2019-01-19T03:36:25.199Z,2.70
2019-01-19T03:37:25.189Z,2.30
2019-01-19T03:38:25.180Z,3.40
2019-01-19T03:39:25.203Z,2.50
2019-01-19T03:40:25.155Z,2.70
2019-01-19T03:41:25.148Z,3.00
2019-01-19T03:42:25.139Z,4.10
2019-01-19T03:43:25.128Z,2.70
2019-01-19T03:44:25.132Z,2.70
2019-01-19T03:45:25.105Z,3.20
2019-01-19T03:46:25.097Z,2.10
2019-01-19T03:47:25.085Z,2.60
2019-01-19T03:48:25.082Z,1.80
2019-01-19T03:49:25.097Z,2.50
2019-01-19T03:50:25.057Z,2.30
2019-01-19T03:51:25.042Z,2.20
2019-01-19T03:52:25.032Z,3.80
2019-01-19T03:53:25.019Z,2.50
2019-01-19T03:54:25.012Z,3.80
2019-01-19T03:55:25.035Z,3.00
2019-01-19T03:56:24.988Z,2.40
2019-01-19T03:57:24.979Z,2.00
2019-01-19T03:58:24.969Z,2.20
2019-01-19T03:59:24.973Z,2.50
2019-01-19T04:00:24.965Z,2.10
2019-01-19T04:01:24.970Z,2.70
2019-01-19T04:02:24.923Z,4.30
2019-01-19T04:03:26.723Z,2.40
2019-01-19T04:04:24.903Z,3.70
2019-01-19T04:05:24.895Z,3.10
2019-01-19T04:06:24.882Z,2.30
2019-01-19T04:07:24.884Z,2.00
2019-01-19T04:08:24.866Z,3.30
2019-01-19T04:09:24.857Z,3.50
2019-01-19T04:10:24.844Z,2.80
2019-01-19T04:11:24.829Z,4.60
2019-01-19T04:12:24.843Z,3.70
2019-01-19T04:13:24.808Z,3.70
2019-01-19T04:14:24.798Z,2.20
2019-01-19T04:15:24.788Z,2.20
2019-01-19T04:16:24.777Z,2.30
2019-01-19T04:17:24.771Z,3.60
2019-01-19T04:18:24.771Z,2.40
2019-01-19T04:19:24.746Z,2.60
2019-01-19T04:20:24.738Z,1.60
2019-01-19T04:21:24.726Z,1.90
2019-01-19T04:22:24.713Z,3.00
2019-01-19T04:23:24.721Z,1.60
2019-01-19T04:24:24.693Z,2.10
2019-01-19T04:25:24.684Z,1.70
2019-01-19T04:26:24.672Z,2.30
2019-01-19T04:27:24.663Z,1.90
2019-01-19T04:28:24.669Z,3.20
2019-01-19T04:29:24.641Z,2.30
2019-01-19T04:30:24.631Z,2.60
2019-01-19T04:31:24.634Z,3.50
2019-01-19T04:32:24.608Z,2.20
2019-01-19T04:33:24.597Z,1.80
2019-01-19T04:34:24.592Z,4.10
2019-01-19T04:35:24.576Z,4.60
2019-01-19T04:36:24.584Z,2.10
2019-01-19T04:37:24.556Z,2.70
2019-01-19T04:38:24.585Z,3.10
2019-01-19T04:39:24.536Z,4.90
2019-01-19T04:40:24.523Z,2.20
2019-01-19T04:41:24.514Z,1.90
2019-01-19T04:42:24.552Z,2.50
2019-01-19T04:43:24.490Z,2.80
2019-01-19T04:44:24.494Z,3.40
2019-01-19T04:45:24.500Z,2.70
2019-01-19T04:46:24.461Z,2.50
2019-01-19T04:47:24.448Z,3.00
2019-01-19T04:48:24.438Z,3.00
2019-01-19T04:49:24.430Z,2.20
2019-01-19T04:50:24.417Z,3.00
2019-01-19T04:51:24.421Z,3.10
2019-01-19T04:52:24.396Z,3.20
2019-01-19T04:53:24.388Z,1.90
2019-01-19T04:54:24.376Z,1.70
2019-01-19T04:55:24.367Z,2.80
2019-01-19T04:56:24.367Z,2.30
2019-01-19T04:57:24.344Z,2.70
2019-01-19T04:58:24.335Z,1.60
2019-01-19T04:59:24.326Z,2.70
2019-01-19T05:00:24.316Z,2.30
2019-01-19T05:01:24.317Z,2.10
2019-01-19T05:02:24.290Z,2.30
2019-01-19T05:03:24.280Z,3.40
2019-01-19T05:04:24.273Z,2.00
2019-01-19T05:05:24.260Z,3.70
2019-01-19T05:06:30.231Z,4.60
2019-01-19T05:07:25.239Z,3.00
2019-01-19T05:08:24.243Z,3.60
2019-01-19T05:09:24.219Z,3.20
2019-01-19T05:10:24.207Z,3.60
2019-01-19T05:11:24.197Z,2.60
2019-01-19T05:12:24.220Z,2.80
2019-01-19T05:13:24.177Z,3.90
2019-01-19T05:14:24.164Z,2.90
2019-01-19T05:15:24.152Z,1.80
2019-01-19T05:16:24.146Z,2.30
2019-01-19T05:17:24.134Z,3.10
2019-01-19T05:18:24.140Z,4.90
2019-01-19T05:19:24.130Z,2.40
2019-01-19T05:20:24.099Z,1.90
2019-01-19T05:21:24.093Z,2.40
2019-01-19T05:22:24.091Z,2.00
2019-01-19T05:23:24.085Z,3.00
2019-01-19T05:24:24.073Z,2.60
2019-01-19T05:25:24.060Z,1.40
2019-01-19T05:26:24.039Z,1.90
2019-01-19T05:27:24.028Z,2.10
2019-01-19T05:28:24.015Z,2.20
2019-01-19T05:29:24.035Z,1.70
2019-01-19T05:30:23.994Z,4.90
2019-01-19T05:31:23.986Z,3.30
2019-01-19T05:32:23.976Z,3.20
2019-01-19T05:33:23.965Z,2.30
2019-01-19T05:34:23.958Z,2.40
2019-01-19T05:35:23.956Z,1.80
2019-01-19T05:36:23.930Z,2.20
2019-01-19T05:37:23.924Z,2.50
2019-01-19T05:38:23.937Z,1.90
2019-01-19T05:39:23.903Z,2.90
2019-01-19T05:40:23.889Z,2.50
2019-01-19T05:41:23.882Z,1.60
2019-01-19T05:42:23.869Z,2.10
2019-01-19T05:43:23.860Z,2.40
2019-01-19T05:44:23.874Z,4.20
2019-01-19T05:45:23.835Z,2.80
2019-01-19T05:46:23.826Z,3.30
2019-01-19T05:47:23.817Z,3.00
2019-01-19T05:48:23.805Z,2.20
2019-01-19T05:49:23.794Z,2.60
2019-01-19T05:50:23.802Z,3.20
2019-01-19T05:51:23.775Z,2.40
2019-01-19T05:52:23.780Z,3.20
2019-01-19T05:53:23.754Z,2.80
2019-01-19T05:54:23.745Z,3.60
2019-01-19T05:55:23.730Z,3.20
2019-01-19T05:56:23.722Z,3.40
2019-01-19T05:57:23.729Z,3.00
2019-01-19T05:58:23.700Z,1.90
2019-01-19T05:59:23.692Z,3.70
2019-01-19T06:00:23.678Z,3.40
2019-01-19T06:01:23.676Z,3.30
2019-01-19T06:02:23.673Z,2.20
2019-01-19T06:03:23.674Z,4.10
2019-01-19T06:04:23.636Z,3.00
2019-01-19T06:05:23.624Z,3.00
2019-01-19T06:06:23.618Z,2.20
2019-01-19T06:07:23.604Z,3.60
2019-01-19T06:08:23.594Z,3.90
2019-01-19T06:09:23.599Z,2.40
2019-01-19T06:10:23.575Z,2.40
2019-01-19T06:11:23.564Z,4.50
2019-01-19T06:12:23.555Z,2.80
2019-01-19T06:13:23.559Z,2.10
2019-01-19T06:14:23.533Z,3.20
2019-01-19T06:15:23.521Z,3.00
2019-01-19T06:16:23.513Z,2.70
2019-01-19T06:17:23.504Z,3.40
2019-01-19T06:18:23.505Z,2.30
2019-01-19T06:19:23.494Z,3.60
2019-01-19T06:20:23.472Z,4.10
2019-01-19T06:21:23.585Z,2.60
2019-01-19T06:22:23.447Z,2.20
2019-01-19T06:23:23.435Z,2.90
2019-01-19T06:24:23.446Z,2.50
2019-01-19T06:25:23.434Z,5.00
2019-01-19T06:26:23.407Z,3.10
2019-01-19T06:27:23.397Z,4.00
2019-01-19T06:28:23.388Z,2.60
2019-01-19T06:29:23.372Z,3.70
2019-01-19T06:30:23.382Z,3.70
2019-01-19T06:31:23.357Z,3.10
2019-01-19T06:32:23.341Z,2.20
2019-01-19T06:33:23.335Z,2.70
2019-01-19T06:34:23.322Z,2.20
2019-01-19T06:35:23.344Z,4.60
2019-01-19T06:36:23.301Z,3.60
2019-01-19T06:37:23.292Z,3.30
2019-01-19T06:38:23.279Z,3.10
2019-01-19T06:39:23.269Z,2.30
2019-01-19T06:40:23.262Z,3.10
2019-01-19T06:41:23.262Z,2.70
2019-01-19T06:42:23.236Z,2.20
2019-01-19T06:43:23.228Z,4.80
2019-01-19T06:44:23.215Z,2.90
2019-01-19T06:45:23.204Z,2.30
2019-01-19T06:46:23.210Z,3.20
2019-01-19T06:47:23.186Z,2.80
2019-01-19T06:48:23.175Z,4.40
2019-01-19T06:49:23.178Z,3.40
2019-01-19T06:50:23.156Z,2.60
2019-01-19T06:51:23.144Z,4.70
2019-01-19T06:52:23.134Z,3.30
2019-01-19T06:53:23.133Z,2.80
2019-01-19T06:54:23.113Z,2.50
2019-01-19T06:55:23.102Z,3.20
2019-01-19T06:56:23.092Z,2.10
2019-01-19T06:57:23.078Z,2.90
2019-01-19T06:58:23.084Z,2.40
2019-01-19T06:59:23.060Z,2.80
2019-01-19T07:00:23.070Z,2.50
2019-01-19T07:01:23.039Z,4.60
2019-01-19T07:02:23.025Z,4.10
2019-01-19T07:03:23.015Z,3.00
2019-01-19T07:04:23.008Z,2.80
2019-01-19T07:05:22.996Z,3.30
2019-01-19T07:06:23.013Z,5.00
2019-01-19T07:07:22.976Z,2.60
2019-01-19T07:08:22.969Z,2.70
2019-01-19T07:09:22.953Z,6.90
2019-01-19T07:10:22.949Z,3.60
2019-01-19T07:11:22.934Z,4.70
2019-01-19T07:12:22.938Z,3.40
2019-01-19T07:13:22.914Z,4.50
2019-01-19T07:14:22.902Z,3.20
2019-01-19T07:15:22.889Z,3.80
2019-01-19T07:16:22.878Z,3.40
2019-01-19T07:17:22.912Z,3.40
2019-01-19T07:18:22.861Z,5.30
2019-01-19T07:19:22.850Z,4.10
2019-01-19T07:20:22.837Z,4.00
2019-01-19T07:21:22.827Z,4.40
2019-01-19T07:22:22.819Z,3.90
2019-01-19T07:23:22.847Z,3.80
2019-01-19T07:24:22.798Z,2.40
2019-01-19T07:25:22.783Z,6.50
2019-01-19T07:26:22.774Z,3.60
2019-01-19T07:27:22.765Z,4.90
2019-01-19T07:28:22.756Z,3.70
2019-01-19T07:29:22.759Z,3.70
2019-01-19T07:30:22.732Z,3.40
2019-01-19T07:31:22.724Z,3.70
2019-01-19T07:32:22.713Z,3.00
2019-01-19T07:33:22.720Z,2.90
2019-01-19T07:34:22.695Z,4.10
2019-01-19T07:35:22.687Z,3.40
2019-01-19T07:36:22.672Z,3.70
2019-01-19T07:37:22.659Z,4.70
2019-01-19T07:38:22.677Z,2.90
2019-01-19T07:39:22.640Z,4.10
2019-01-19T07:40:22.632Z,4.30
2019-01-19T07:41:22.621Z,3.60
2019-01-19T07:42:22.609Z,2.90
2019-01-19T07:43:22.597Z,2.90
2019-01-19T07:44:22.603Z,6.50
2019-01-19T07:45:22.591Z,3.10
2019-01-19T07:46:22.566Z,3.40
2019-01-19T07:47:22.558Z,4.00
2019-01-19T07:48:22.545Z,3.50
2019-01-19T07:49:22.549Z,4.90
2019-01-19T07:50:22.526Z,4.10
2019-01-19T07:51:22.517Z,3.00
2019-01-19T07:52:22.506Z,4.80
2019-01-19T07:53:22.500Z,4.50
2019-01-19T07:54:22.499Z,3.90
2019-01-19T07:55:22.472Z,2.80
2019-01-19T07:56:22.463Z,4.20
2019-01-19T07:57:22.449Z,2.10
2019-01-19T07:58:22.443Z,4.00
2019-01-19T07:59:22.470Z,3.10
2019-01-19T08:00:22.426Z,5.00
2019-01-19T08:01:22.408Z,4.00
2019-01-19T08:02:22.397Z,2.40
2019-01-19T08:03:22.412Z,3.80
2019-01-19T08:04:22.376Z,2.50
2019-01-19T08:05:22.400Z,3.90
2019-01-19T08:06:22.359Z,3.20
2019-01-19T08:07:22.347Z,4.20
2019-01-19T08:08:22.337Z,4.70
2019-01-19T08:09:22.325Z,3.20
2019-01-19T08:10:22.313Z,3.70
2019-01-19T08:11:22.322Z,3.00
2019-01-19T08:12:22.292Z,4.00
2019-01-19T08:13:22.283Z,3.30
2019-01-19T08:14:22.273Z,3.50
2019-01-19T08:15:22.263Z,3.40
2019-01-19T08:16:22.249Z,2.70
2019-01-19T08:17:22.251Z,4.40
2019-01-19T08:18:22.233Z,5.70
2019-01-19T08:19:22.220Z,2.20
2019-01-19T08:20:22.209Z,3.30
2019-01-19T08:21:22.215Z,3.80
2019-01-19T08:22:22.189Z,3.80
2019-01-19T08:23:22.173Z,5.20
2019-01-19T08:24:22.200Z,3.10
2019-01-19T08:25:22.156Z,3.60
2019-01-19T08:26:22.159Z,3.40
2019-01-19T08:27:22.135Z,4.30
2019-01-19T08:28:22.122Z,2.80
2019-01-19T08:29:22.113Z,3.00
2019-01-19T08:30:22.102Z,2.40
2019-01-19T08:31:22.114Z,3.40
2019-01-19T08:32:22.082Z,3.10
2019-01-19T08:33:22.072Z,5.30
2019-01-19T08:34:22.061Z,3.80
2019-01-19T08:35:22.056Z,3.30
2019-01-19T08:36:22.041Z,3.40
2019-01-19T08:37:24.556Z,3.70
2019-01-19T08:38:22.033Z,4.30
2019-01-19T08:39:22.008Z,4.30
2019-01-19T08:40:21.995Z,2.60
2019-01-19T08:41:21.986Z,2.80
2019-01-19T08:42:21.974Z,3.70
2019-01-19T08:43:21.988Z,3.50
2019-01-19T08:44:21.957Z,3.20
2019-01-19T08:45:21.949Z,3.20
2019-01-19T08:46:21.934Z,2.90
2019-01-19T08:47:21.927Z,4.20
2019-01-19T08:48:21.910Z,3.00
2019-01-19T08:49:21.911Z,4.30
2019-01-19T08:50:21.890Z,3.00
2019-01-19T08:51:21.882Z,4.10
2019-01-19T08:52:21.869Z,3.70
2019-01-19T08:53:21.859Z,3.50
2019-01-19T08:54:21.862Z,2.20
2019-01-19T08:55:21.836Z,2.70
2019-01-19T08:56:21.826Z,4.60
2019-01-19T08:57:21.817Z,3.80
2019-01-19T08:58:21.803Z,3.10
2019-01-19T08:59:21.828Z,4.30
2019-01-19T09:00:21.782Z,3.40
2019-01-19T09:01:21.776Z,2.20
2019-01-19T09:02:21.762Z,3.90
2019-01-19T09:03:21.752Z,3.50
2019-01-19T09:04:21.740Z,3.60
2019-01-19T09:05:21.742Z,2.50
2019-01-19T09:06:21.718Z,3.40
2019-01-19T09:07:21.705Z,5.20
2019-01-19T09:08:21.698Z,2.90
2019-01-19T09:09:21.684Z,2.80
2019-01-19T09:10:21.704Z,3.10
2019-01-19T09:11:21.665Z,4.00
2019-01-19T09:12:21.653Z,2.60
2019-01-19T09:13:21.643Z,3.40
2019-01-19T09:14:21.634Z,2.50
2019-01-19T09:15:21.620Z,2.30
2019-01-19T09:16:21.625Z,2.60
2019-01-19T09:17:21.598Z,4.60
2019-01-19T09:18:21.589Z,4.30
2019-01-19T09:19:21.594Z,3.40
2019-01-19T09:20:21.581Z,3.50
2019-01-19T09:21:21.587Z,3.40
2019-01-19T09:22:21.547Z,1.90
2019-01-19T09:23:21.532Z,3.10
2019-01-19T09:24:21.522Z,5.80
2019-01-19T09:25:21.536Z,1.90
2019-01-19T09:26:21.503Z,4.10
2019-01-19T09:27:21.505Z,2.90
2019-01-19T09:28:21.481Z,3.30
2019-01-19T09:29:21.467Z,4.80
2019-01-19T09:30:21.456Z,3.90
2019-01-19T09:31:21.465Z,2.80
2019-01-19T09:32:21.438Z,2.40
2019-01-19T09:33:21.425Z,3.10
2019-01-19T09:34:21.419Z,2.00
2019-01-19T09:35:21.404Z,2.60
2019-01-19T09:36:21.415Z,2.60
2019-01-19T09:37:21.384Z,3.00
2019-01-19T09:38:21.428Z,5.30
2019-01-19T09:39:21.360Z,2.90
2019-01-19T09:40:21.354Z,2.60
2019-01-19T09:41:21.341Z,2.70
2019-01-19T09:42:21.348Z,4.40
2019-01-19T09:43:21.316Z,2.60
2019-01-19T09:44:21.310Z,2.90
2019-01-19T09:45:21.297Z,2.20
2019-01-19T09:46:21.285Z,2.30
2019-01-19T09:47:21.274Z,2.90
2019-01-19T09:48:21.277Z,1.60
2019-01-19T09:49:21.255Z,2.00
2019-01-19T09:50:21.241Z,2.40
2019-01-19T09:51:21.234Z,4.30
2019-01-19T09:52:21.426Z,2.50
2019-01-19T09:53:21.275Z,2.70
2019-01-19T09:54:21.201Z,3.00
2019-01-19T09:55:21.190Z,3.60
2019-01-19T09:56:21.178Z,6.20
2019-01-19T09:57:21.168Z,4.50
2019-01-19T09:58:21.157Z,2.80
2019-01-19T09:59:21.158Z,3.70
2019-01-19T10:00:21.140Z,2.50
2019-01-19T10:01:21.123Z,2.40
2019-01-19T10:02:21.115Z,3.10
2019-01-19T10:03:21.104Z,2.50
2019-01-19T10:04:21.106Z,3.60
2019-01-19T10:05:21.094Z,6.30
2019-01-19T10:06:21.068Z,3.70
2019-01-19T10:07:21.061Z,3.30
2019-01-19T10:08:21.050Z,3.00
2019-01-19T10:09:21.071Z,2.90
2019-01-19T10:10:21.025Z,2.80
2019-01-19T10:11:21.015Z,3.50
2019-01-19T10:12:21.003Z,2.50
2019-01-19T10:13:20.997Z,3.10
2019-01-19T10:14:20.981Z,2.60
2019-01-19T10:15:20.984Z,1.80
2019-01-19T10:16:20.975Z,1.60
2019-01-19T10:17:20.969Z,5.00
2019-01-19T10:18:20.939Z,3.60
2019-01-19T10:19:20.930Z,2.70
2019-01-19T10:20:20.915Z,7.90
2019-01-19T10:21:20.906Z,5.10
2019-01-19T10:22:20.893Z,5.50
2019-01-19T10:23:20.902Z,7.10
2019-01-19T10:24:20.873Z,2.80
2019-01-19T10:25:20.861Z,2.70
2019-01-19T10:26:20.868Z,3.60
2019-01-19T10:27:20.841Z,3.00
2019-01-19T10:28:20.847Z,2.00
2019-01-19T10:29:20.817Z,2.30
2019-01-19T10:30:20.804Z,4.00
2019-01-19T10:31:20.795Z,1.30
2019-01-19T10:32:20.787Z,2.80
2019-01-19T10:33:20.798Z,1.30
2019-01-19T10:34:20.766Z,3.10
2019-01-19T10:35:20.753Z,1.90
2019-01-19T10:36:20.744Z,3.80
2019-01-19T10:37:20.739Z,2.70
2019-01-19T10:38:20.736Z,2.50
2019-01-19T10:39:20.713Z,3.00
2019-01-19T10:40:20.700Z,2.50
2019-01-19T10:41:20.690Z,4.80
2019-01-19T10:42:20.679Z,2.40
2019-01-19T10:43:20.682Z,3.00
2019-01-19T10:44:20.659Z,2.40
2019-01-19T10:45:20.657Z,2.60
2019-01-19T10:46:20.635Z,2.80
2019-01-19T10:47:20.628Z,2.80
2019-01-19T10:48:20.619Z,1.80
2019-01-19T10:49:20.606Z,3.50
2019-01-19T10:50:20.608Z,3.00
2019-01-19T10:51:20.601Z,1.60
2019-01-19T10:52:20.570Z,2.50
2019-01-19T10:53:20.563Z,2.90
2019-01-19T10:54:20.552Z,2.30
2019-01-19T10:55:20.580Z,4.90
2019-01-19T10:56:20.528Z,2.80
2019-01-19T10:57:20.520Z,9.90
2019-01-19T10:58:20.509Z,8.50
2019-01-19T10:59:20.496Z,5.60
2019-01-19T11:00:20.483Z,9.80
2019-01-19T11:01:20.503Z,3.10
2019-01-19T11:02:20.464Z,4.60
2019-01-19T11:03:20.450Z,2.70
2019-01-19T11:04:20.440Z,3.40
2019-01-19T11:05:20.432Z,2.50
2019-01-19T11:06:20.420Z,2.00
2019-01-19T11:07:20.447Z,3.60
2019-01-19T11:08:20.397Z,3.60
2019-01-19T11:09:20.385Z,1.30
2019-01-19T11:10:20.374Z,3.20
2019-01-19T11:11:20.364Z,2.50
2019-01-19T11:12:20.354Z,3.10
2019-01-19T11:13:20.359Z,3.30
2019-01-19T11:14:20.332Z,3.70
2019-01-19T11:15:20.321Z,4.00
2019-01-19T11:16:20.314Z,2.70
2019-01-19T11:17:20.301Z,3.40
2019-01-19T11:18:20.307Z,2.70
2019-01-19T11:19:20.277Z,2.10
2019-01-19T11:20:20.269Z,3.00
2019-01-19T11:21:20.260Z,4.50
2019-01-19T11:22:20.244Z,3.80
2019-01-19T11:23:20.252Z,2.70
2019-01-19T11:24:20.229Z,1.30
2019-01-19T11:25:20.216Z,4.80
2019-01-19T11:26:20.206Z,2.60
2019-01-19T11:27:20.193Z,2.10
2019-01-19T11:28:20.202Z,1.90
2019-01-19T11:29:20.189Z,3.00
2019-01-19T11:30:20.162Z,3.20
2019-01-19T11:31:20.152Z,2.10
2019-01-19T11:32:20.140Z,3.30
2019-01-19T11:33:20.131Z,4.20
2019-01-19T11:34:20.132Z,2.40
2019-01-19T11:35:20.107Z,2.60
2019-01-19T11:36:20.099Z,4.10
2019-01-19T11:37:20.087Z,3.10
2019-01-19T11:38:20.451Z,2.70
2019-01-19T11:39:20.098Z,3.10
2019-01-19T11:40:20.053Z,4.60
2019-01-19T11:41:20.045Z,5.10
2019-01-19T11:42:20.049Z,1.60
2019-01-19T11:43:20.025Z,2.30
2019-01-19T11:44:20.012Z,2.50
2019-01-19T11:45:20.022Z,2.30
2019-01-19T11:46:19.988Z,2.50
2019-01-19T11:47:19.980Z,2.50
2019-01-19T11:48:19.970Z,2.60
2019-01-19T11:49:19.961Z,2.80
2019-01-19T11:50:19.966Z,2.10
2019-01-19T11:51:19.953Z,2.40
2019-01-19T11:52:19.924Z,3.30
2019-01-19T11:53:19.914Z,2.50
2019-01-19T11:54:19.907Z,3.80
2019-01-19T11:55:19.896Z,2.40
2019-01-19T11:56:19.899Z,1.90
2019-01-19T11:57:19.870Z,2.00
2019-01-19T11:58:19.863Z,3.40
2019-01-19T11:59:19.850Z,3.50
2019-01-19T12:00:19.840Z,4.60
2019-01-19T12:01:19.847Z,2.70
2019-01-19T12:02:19.818Z,1.70
2019-01-19T12:03:19.807Z,3.10
2019-01-19T12:04:19.797Z,1.80
2019-01-19T12:05:19.792Z,2.00
2019-01-19T12:06:19.802Z,3.80
2019-01-19T12:07:19.768Z,2.00
2019-01-19T12:08:20.012Z,2.50
2019-01-19T12:09:19.746Z,2.00
2019-01-19T12:10:19.739Z,3.90
2019-01-19T12:11:19.724Z,3.10
2019-01-19T12:12:19.742Z,1.40
2019-01-19T12:13:19.703Z,2.80
2019-01-19T12:14:19.691Z,3.40
2019-01-19T12:15:19.680Z,1.70
2019-01-19T12:16:19.673Z,2.20
2019-01-19T12:17:19.661Z,1.70
2019-01-19T12:18:19.666Z,2.00
2019-01-19T12:19:19.638Z,3.60
2019-01-19T12:20:19.627Z,2.30
2019-01-19T12:21:19.619Z,1.60
2019-01-19T12:22:19.604Z,2.90
2019-01-19T12:23:19.612Z,2.70
2019-01-19T12:24:19.587Z,1.50
2019-01-19T12:25:19.572Z,1.60
2019-01-19T12:26:19.564Z,2.10
2019-01-19T12:27:19.555Z,1.80
2019-01-19T12:28:19.580Z,2.30
2019-01-19T12:29:19.531Z,1.90
2019-01-19T12:30:19.521Z,2.50
2019-01-19T12:31:19.523Z,2.00
2019-01-19T12:32:19.502Z,3.50
2019-01-19T12:33:19.490Z,2.50
2019-01-19T12:34:19.500Z,5.70
2019-01-19T12:35:19.470Z,2.50
2019-01-19T12:36:19.456Z,2.80
2019-01-19T12:37:19.447Z,2.80
2019-01-19T12:38:26.569Z,3.60
2019-01-19T12:39:20.439Z,1.70
2019-01-19T12:40:19.411Z,3.00
2019-01-19T12:41:19.401Z,2.80
2019-01-19T12:42:19.394Z,4.50
2019-01-19T12:43:19.386Z,3.20
2019-01-19T12:44:19.411Z,3.40
2019-01-19T12:45:19.359Z,3.70
2019-01-19T12:46:19.350Z,3.00
2019-01-19T12:47:19.339Z,3.60
2019-01-19T12:48:19.330Z,3.60
2019-01-19T12:49:19.316Z,3.10
2019-01-19T12:50:19.325Z,2.60
2019-01-19T12:51:19.297Z,1.90
2019-01-19T12:52:19.284Z,1.30
2019-01-19T12:53:19.274Z,2.20
2019-01-19T12:54:19.266Z,2.20
2019-01-19T12:55:19.297Z,3.30
2019-01-19T12:56:19.244Z,2.10
2019-01-19T12:57:19.233Z,3.40
2019-01-19T12:58:19.222Z,3.90
2019-01-19T12:59:19.211Z,3.30
2019-01-19T13:00:19.200Z,1.70
2019-01-19T13:01:19.203Z,1.70
2019-01-19T13:02:19.181Z,3.20
2019-01-19T13:03:19.172Z,2.50
2019-01-19T13:04:19.176Z,2.70
2019-01-19T13:05:19.145Z,2.60
2019-01-19T13:06:19.134Z,3.20
2019-01-19T13:07:19.149Z,1.60
2019-01-19T13:08:19.116Z,2.30
2019-01-19T13:09:19.103Z,2.60
2019-01-19T13:10:19.093Z,2.40
2019-01-19T13:11:19.082Z,2.10
2019-01-19T13:12:19.070Z,2.40
2019-01-19T13:13:19.077Z,3.40
2019-01-19T13:14:19.050Z,2.10
2019-01-19T13:15:19.038Z,1.90
2019-01-19T13:16:19.027Z,3.90